Time;durP1;ratioP1;P1;durP2;ratioP2;P2;SDS_P1;SDS_P2;PMS_P1;PMS_P2;Temp;Humidity;BMP_temperature;BMP_pressure;BME280_temperature;BME280_humidity;BME280_pressure;Samples;Min_cycle;Max_cycle;Signal;HPM_P1;HPM_P2
2022/06/29 00:00:21;;;;;;;5.87;5.47;;;19.30;99.90;;;;;;5133030;27;20794;-69
2022/06/29 00:02:47;;;;;;;8.20;5.50;;;19.30;99.40;;;;;;5133847;27;20436;-68
2022/06/29 00:05:15;;;;;;;6.13;5.63;;;19.30;99.50;;;;;;5133854;27;20815;-68
2022/06/29 00:07:42;;;;;;;6.40;5.87;;;19.30;99.50;;;;;;5131360;27;20632;-68
2022/06/29 00:10:13;;;;;;;5.97;5.43;;;19.30;99.40;;;;;;5131794;27;20507;-68
2022/06/29 00:12:39;;;;;;;5.80;5.30;;;19.30;99.20;;;;;;5132929;27;20409;-68
2022/06/29 00:15:06;;;;;;;6.00;5.40;;;19.30;99.20;;;;;;5133674;27;20400;-68
2022/06/29 00:17:33;;;;;;;6.90;5.97;;;19.20;99.20;;;;;;5121106;27;20433;-68
2022/06/29 00:20:00;;;;;;;5.60;5.10;;;19.20;99.50;;;;;;5120281;28;20555;-68
2022/06/29 00:22:27;;;;;;;6.03;5.53;;;19.20;99.70;;;;;;5133241;28;20439;-68
2022/06/29 00:24:54;;;;;;;6.60;5.30;;;19.20;99.50;;;;;;5132202;27;20484;-68
2022/06/29 00:27:21;;;;;;;5.40;5.00;;;19.20;99.60;;;;;;5131750;28;20419;-68
2022/06/29 00:29:47;;;;;;;5.67;5.00;;;19.10;99.50;;;;;;5133686;28;20405;-68
2022/06/29 00:32:13;;;;;;;5.10;4.70;;;19.10;99.80;;;;;;5133537;28;20397;-68
2022/06/29 00:34:39;;;;;;;4.90;4.50;;;19.10;99.90;;;;;;5129799;28;20503;-68
2022/06/29 00:37:05;;;;;;;5.40;5.00;;;19.00;99.90;;;;;;5133548;28;20423;-68
2022/06/29 00:39:31;;;;;;;5.20;4.80;;;19.00;99.90;;;;;;5131549;28;20213;-68
2022/06/29 00:41:58;;;;;;;5.97;5.57;;;19.00;99.90;;;;;;5133304;28;20409;-68
2022/06/29 00:44:24;;;;;;;5.77;5.30;;;19.00;99.90;;;;;;5132893;28;20457;-68
2022/06/29 00:46:58;;;;;;;5.30;4.90;;;19.00;99.90;;;;;;5127773;28;20413;-68
2022/06/29 00:49:26;;;;;;;5.20;4.80;;;19.00;99.90;;;;;;5112266;28;20482;-68
2022/06/29 00:52:27;;;;;;;5.47;5.07;;;19.00;99.90;;;;;;5112872;28;20888;-68
2022/06/29 00:55:03;;;;;;;5.13;4.80;;;19.00;99.90;;;;;;5109422;28;20531;-68
2022/06/29 00:57:30;;;;;;;6.13;4.53;;;18.90;99.90;;;;;;5112308;28;20429;-68
2022/06/29 00:59:58;;;;;;;5.43;5.03;;;19.00;99.90;;;;;;5118218;28;20931;-68
2022/06/29 01:02:34;;;;;;;5.73;5.33;;;19.00;99.90;;;;;;5132680;28;20492;-68
2022/06/29 01:05:01;;;;;;;5.10;4.70;;;19.00;99.90;;;;;;5132229;28;20392;-68
2022/06/29 01:07:33;;;;;;;6.20;5.60;;;19.00;99.90;;;;;;5131049;28;20420;-68
2022/06/29 01:10:00;;;;;;;4.90;4.57;;;19.00;99.90;;;;;;5133238;27;20469;-68
2022/06/29 01:12:26;;;;;;;5.47;5.07;;;19.00;99.90;;;;;;5136774;27;20396;-68
2022/06/29 01:14:53;;;;;;;5.60;5.20;;;19.00;99.90;;;;;;5137076;27;20400;-68
2022/06/29 01:17:20;;;;;;;6.13;5.53;;;19.00;99.90;;;;;;5131840;27;20425;-68
2022/06/29 01:19:46;;;;;;;5.40;5.10;;;19.00;99.90;;;;;;5136871;27;20474;-68
2022/06/29 01:22:17;;;;;;;5.20;4.80;;;19.00;99.90;;;;;;5136894;27;20531;-68
2022/06/29 01:24:44;;;;;;;5.20;4.80;;;19.00;99.90;;;;;;5132617;27;20204;-68
2022/06/29 01:27:11;;;;;;;4.97;4.57;;;19.00;99.90;;;;;;5136777;27;20480;-68
2022/06/29 01:29:37;;;;;;;4.97;4.60;;;19.00;99.90;;;;;;5134920;27;20420;-68
2022/06/29 01:32:03;;;;;;;5.90;5.40;;;19.00;99.90;;;;;;5126404;27;20463;-68
2022/06/29 01:34:30;;;;;;;5.17;4.77;;;19.00;99.90;;;;;;5113337;28;20202;-68
2022/06/29 01:36:58;;;;;;;4.83;4.50;;;19.00;99.90;;;;;;5115801;28;20886;-68
2022/06/29 01:39:24;;;;;;;4.80;4.50;;;19.00;99.90;;;;;;5115337;28;20460;-68
2022/06/29 01:41:49;;;;;;;5.30;4.90;;;19.00;99.90;;;;;;5116074;28;20857;-68
2022/06/29 01:44:15;;;;;;;5.10;4.80;;;19.10;99.90;;;;;;5115907;28;20458;-68
2022/06/29 01:46:44;;;;;;;4.80;4.60;;;19.00;99.90;;;;;;5112774;28;20167;-68
2022/06/29 01:49:10;;;;;;;5.03;4.73;;;19.00;99.90;;;;;;5113381;27;20569;-68
2022/06/29 01:51:36;;;;;;;4.67;4.37;;;19.10;99.90;;;;;;5134284;27;20880;-68
2022/06/29 01:54:02;;;;;;;4.90;4.60;;;19.00;99.90;;;;;;5135077;27;20167;-68
2022/06/29 01:56:27;;;;;;;5.40;4.90;;;19.00;99.90;;;;;;5135736;27;20630;-68
2022/06/29 01:58:53;;;;;;;5.50;5.20;;;19.00;99.90;;;;;;5136238;27;20444;-68
2022/06/29 02:01:19;;;;;;;6.00;5.37;;;19.00;99.90;;;;;;5134967;27;20420;-68
2022/06/29 02:03:47;;;;;;;5.80;5.40;;;19.00;99.90;;;;;;5126183;27;20175;-68
2022/06/29 02:06:13;;;;;;;5.50;5.10;;;19.00;99.90;;;;;;5120752;27;20179;-68
2022/06/29 02:08:39;;;;;;;5.50;5.20;;;19.00;99.90;;;;;;5135536;27;20407;-68
2022/06/29 02:11:04;;;;;;;5.33;4.87;;;19.00;99.90;;;;;;5135981;27;20167;-68
2022/06/29 02:13:30;;;;;;;6.23;5.83;;;19.00;99.90;;;;;;5135583;27;20527;-68
2022/06/29 02:15:58;;;;;;;6.20;5.80;;;19.00;99.90;;;;;;5133790;27;20182;-68
2022/06/29 02:18:24;;;;;;;7.30;6.70;;;19.00;99.90;;;;;;5114035;28;20195;-72
2022/06/29 02:20:50;;;;;;;7.47;6.87;;;19.00;99.90;;;;;;5130003;27;20433;-68
2022/06/29 02:23:15;;;;;;;8.17;7.47;;;19.00;99.90;;;;;;5116722;27;20174;-68
2022/06/29 02:25:41;;;;;;;7.33;6.73;;;19.00;99.90;;;;;;5114833;28;20175;-68
2022/06/29 02:28:07;;;;;;;6.90;6.40;;;19.00;99.90;;;;;;5115381;28;20168;-68
2022/06/29 02:36:01;;;;;;;6.53;6.03;;;19.00;99.90;;;;;;5135519;27;20389;-68
2022/06/29 02:38:27;;;;;;;6.67;6.17;;;19.00;99.90;;;;;;5133588;27;20487;-68
2022/06/29 02:40:55;;;;;;;7.00;6.40;;;18.90;99.90;;;;;;5133395;27;20420;-68
2022/06/29 02:43:21;;;;;;;7.00;6.50;;;18.90;99.90;;;;;;5135339;27;20420;-68
2022/06/29 02:45:47;;;;;;;6.80;6.40;;;18.90;99.90;;;;;;5133379;27;20542;-69
2022/06/29 02:48:12;;;;;;;6.83;6.33;;;18.90;99.90;;;;;;5114554;27;20262;-68
2022/06/29 02:50:38;;;;;;;6.67;6.17;;;18.90;99.90;;;;;;5114068;28;20174;-68
2022/06/29 02:53:04;;;;;;;7.17;6.57;;;18.80;99.90;;;;;;5114571;28;20221;-68
2022/06/29 02:55:30;;;;;;;6.80;5.60;;;18.80;99.90;;;;;;5113963;28;20175;-68
2022/06/29 02:57:55;;;;;;;6.43;5.83;;;18.80;99.90;;;;;;5113194;28;20259;-68
2022/06/29 03:00:21;;;;;;;5.87;5.37;;;18.70;99.90;;;;;;5127596;27;20248;-68
2022/06/29 03:02:47;;;;;;;6.20;5.70;;;18.70;99.90;;;;;;5134130;27;20171;-68
2022/06/29 03:05:15;;;;;;;6.40;5.90;;;18.70;99.90;;;;;;5131633;27;20177;-68
2022/06/29 03:07:41;;;;;;;8.07;6.30;;;18.60;99.90;;;;;;5133013;27;20254;-68
2022/06/29 03:10:07;;;;;;;6.73;5.80;;;18.60;99.90;;;;;;5133436;27;20456;-68
2022/06/29 03:12:33;;;;;;;6.63;6.13;;;18.70;99.90;;;;;;5121037;27;20210;-68
2022/06/29 03:14:59;;;;;;;6.47;5.97;;;18.60;99.90;;;;;;5133430;27;20397;-72
2022/06/29 03:17:24;;;;;;;6.27;5.77;;;18.60;99.90;;;;;;5120698;27;20428;-68
2022/06/29 03:19:50;;;;;;;6.73;6.13;;;18.60;99.90;;;;;;5126711;27;20211;-68
2022/06/29 03:22:16;;;;;;;6.23;5.70;;;18.60;99.90;;;;;;5134595;27;20665;-72
2022/06/29 03:24:42;;;;;;;6.60;6.00;;;18.60;99.90;;;;;;5126123;27;20185;-68
2022/06/29 03:27:07;;;;;;;6.33;5.87;;;18.60;99.90;;;;;;5127143;27;20192;-68
2022/06/29 03:29:33;;;;;;;6.10;5.70;;;18.60;99.90;;;;;;5109800;28;20183;-68
2022/06/29 03:31:59;;;;;;;6.40;6.00;;;18.60;99.90;;;;;;5120693;27;20171;-68
2022/06/29 03:34:24;;;;;;;6.33;5.80;;;18.60;99.90;;;;;;5132152;27;20171;-68
2022/06/29 03:36:50;;;;;;;6.70;6.27;;;18.60;99.90;;;;;;5133702;27;20171;-68
2022/06/29 03:39:16;;;;;;;5.97;5.50;;;18.60;99.90;;;;;;5132837;27;20209;-68
2022/06/29 03:41:42;;;;;;;6.13;5.63;;;18.60;99.90;;;;;;5133685;27;20171;-68
2022/06/29 03:44:08;;;;;;;6.33;5.83;;;18.70;99.90;;;;;;5132320;27;20183;-68
2022/06/29 03:46:33;;;;;;;7.03;6.47;;;18.70;99.90;;;;;;5126294;27;20171;-68
2022/06/29 03:48:59;;;;;;;8.50;8.00;;;18.70;99.90;;;;;;5114180;28;20478;-70
2022/06/29 03:51:25;;;;;;;8.13;7.63;;;18.70;99.90;;;;;;5113499;28;20259;-68
2022/06/29 03:53:51;;;;;;;8.07;5.70;;;18.70;99.90;;;;;;5112918;28;20254;-68
2022/06/29 03:56:18;;;;;;;9.00;8.37;;;18.70;99.90;;;;;;5132739;27;20201;-68
2022/06/29 03:58:43;;;;;;;7.00;6.30;;;18.80;99.90;;;;;;5120515;27;20516;-68
2022/06/29 04:01:09;;;;;;;6.60;6.10;;;18.70;99.90;;;;;;5113690;27;20818;-68
2022/06/29 04:03:35;;;;;;;6.40;5.80;;;18.80;99.90;;;;;;5126974;27;20580;-68
2022/06/29 04:06:01;;;;;;;6.43;5.83;;;18.80;99.90;;;;;;5126489;27;20537;-69
2022/06/29 04:08:27;;;;;;;5.90;5.50;;;18.90;99.90;;;;;;5125889;27;20459;-68
2022/06/29 04:10:55;;;;;;;6.40;5.90;;;18.80;99.90;;;;;;5132506;27;20749;-68
2022/06/29 04:13:22;;;;;;;7.13;6.67;;;18.90;99.90;;;;;;5125612;27;20179;-68
2022/06/29 04:15:49;;;;;;;6.63;5.93;;;18.90;99.90;;;;;;5132252;27;20468;-68
2022/06/29 04:18:14;;;;;;;9.37;8.87;;;18.90;99.90;;;;;;5117740;27;20477;-69
2022/06/29 04:23:24;;;;;;;10.20;9.60;;;19.00;99.90;;;;;;5133263;27;20163;-68
2022/06/29 04:25:50;;;;;;;9.20;8.60;;;19.00;99.90;;;;;;5132350;28;20413;-68
2022/06/29 04:28:16;;;;;;;6.27;5.77;;;19.00;99.90;;;;;;5129852;28;20174;-68
2022/06/29 04:30:41;;;;;;;5.63;5.20;;;19.00;99.90;;;;;;5132396;28;20179;-69
2022/06/29 04:33:07;;;;;;;5.93;5.60;;;19.00;99.90;;;;;;5133687;28;20619;-69
2022/06/29 04:35:34;;;;;;;8.37;7.77;;;19.10;99.90;;;;;;5131614;28;20171;-69
2022/06/29 04:38:00;;;;;;;8.50;6.20;;;19.10;99.90;;;;;;5126565;28;20416;-68
2022/06/29 04:40:26;;;;;;;6.40;5.90;;;19.10;99.90;;;;;;5133453;28;21006;-68
2022/06/29 04:42:52;;;;;;;6.00;5.50;;;19.10;99.90;;;;;;5132899;28;20738;-68
2022/06/29 04:48:02;;;;;;;6.70;6.20;;;19.10;99.90;;;;;;5105182;27;20184;-68
2022/06/29 04:50:29;;;;;;;8.03;7.50;;;19.10;99.90;;;;;;5134199;27;20515;-70
2022/06/29 04:52:55;;;;;;;16.80;12.40;;;19.10;99.90;;;;;;5127612;27;21338;-68
2022/06/29 04:55:23;;;;;;;9.20;8.57;;;19.10;99.90;;;;;;5096975;28;20421;-68
2022/06/29 04:57:50;;;;;;;13.13;12.23;;;19.10;99.90;;;;;;5094975;28;20418;-68
2022/06/29 05:00:16;;;;;;;9.40;8.47;;;19.10;99.90;;;;;;5124589;27;20963;-68
2022/06/29 05:02:41;;;;;;;10.83;9.93;;;19.00;99.90;;;;;;5136165;27;20404;-68
2022/06/29 05:05:08;;;;;;;12.50;11.50;;;18.90;99.90;;;;;;5129262;27;20431;-68
2022/06/29 05:07:33;;;;;;;11.60;10.60;;;18.90;99.90;;;;;;5116495;27;20184;-71
2022/06/29 05:09:59;;;;;;;8.10;7.30;;;18.70;99.90;;;;;;5128818;27;20502;-68
2022/06/29 05:12:25;;;;;;;7.03;6.63;;;18.60;99.90;;;;;;5133501;27;20183;-68
2022/06/29 05:14:51;;;;;;;7.73;7.33;;;18.70;99.90;;;;;;5134756;27;20262;-68
2022/06/29 05:17:16;;;;;;;8.63;8.03;;;18.70;99.90;;;;;;5103644;27;20485;-68
2022/06/29 05:19:42;;;;;;;7.00;6.60;;;18.80;99.90;;;;;;5116654;27;20705;-68
2022/06/29 05:22:08;;;;;;;7.43;6.73;;;18.80;99.90;;;;;;5125072;27;20218;-68
2022/06/29 05:24:33;;;;;;;7.00;6.47;;;18.70;99.90;;;;;;5116506;27;20264;-68
2022/06/29 05:26:59;;;;;;;7.20;6.50;;;18.80;99.90;;;;;;5115953;27;20187;-68
2022/06/29 05:29:25;;;;;;;9.20;8.47;;;18.90;99.90;;;;;;5110148;27;20557;-68
2022/06/29 05:31:52;;;;;;;7.87;7.40;;;18.90;99.90;;;;;;5099387;28;20185;-68
2022/06/29 05:34:18;;;;;;;9.70;9.00;;;18.90;99.90;;;;;;5099784;28;20434;-68
2022/06/29 05:36:44;;;;;;;7.30;6.80;;;19.00;99.90;;;;;;5108587;27;20471;-68
2022/06/29 05:39:10;;;;;;;7.00;6.50;;;19.10;99.90;;;;;;5124021;27;20886;-69
2022/06/29 05:41:36;;;;;;;7.97;7.43;;;19.10;99.90;;;;;;5116724;27;20623;-72
2022/06/29 05:44:04;;;;;;;10.23;9.63;;;19.30;99.90;;;;;;5106439;28;20486;-67
2022/06/29 05:46:30;;;;;;;7.33;6.83;;;19.50;99.90;;;;;;5116151;28;20180;-67
2022/06/29 05:48:59;;;;;;;6.10;5.80;;;19.80;99.90;;;;;;5124138;27;20797;-67
2022/06/29 05:51:25;;;;;;;7.43;6.83;;;20.10;99.90;;;;;;5136288;27;20480;-67
2022/06/29 05:53:51;;;;;;;9.63;9.03;;;20.40;99.90;;;;;;5126621;27;20437;-67
2022/06/29 05:56:17;;;;;;;8.90;8.10;;;20.60;99.90;;;;;;5129905;27;20175;-67
2022/06/29 05:58:43;;;;;;;5.97;5.57;;;20.90;99.90;;;;;;5121521;27;20208;-67
2022/06/29 06:01:09;;;;;;;6.90;6.40;;;21.20;99.90;;;;;;5113868;28;20457;-69
2022/06/29 06:03:38;;;;;;;6.57;6.17;;;21.40;99.70;;;;;;5123828;27;20772;-68
2022/06/29 06:06:04;;;;;;;6.50;5.90;;;21.60;98.80;;;;;;5114261;27;20441;-68
2022/06/29 06:08:30;;;;;;;9.70;9.00;;;21.80;98.50;;;;;;5115654;28;20913;-69
2022/06/29 06:10:55;;;;;;;10.23;9.37;;;21.80;96.90;;;;;;5114841;27;20969;-69
2022/06/29 06:13:21;;;;;;;8.80;7.43;;;21.80;96.40;;;;;;5128306;27;20178;-68
2022/06/29 06:15:47;;;;;;;9.40;8.43;;;21.80;96.40;;;;;;5133638;27;20269;-68
2022/06/29 06:18:14;;;;;;;8.13;7.53;;;21.70;96.90;;;;;;5122793;27;20429;-68
2022/06/29 06:20:40;;;;;;;9.40;8.70;;;21.70;96.50;;;;;;5117142;27;20489;-68
2022/06/29 06:23:06;;;;;;;7.87;6.93;;;21.60;96.00;;;;;;5114791;28;20418;-67
2022/06/29 06:25:32;;;;;;;6.23;5.73;;;21.50;96.00;;;;;;5120943;27;20470;-67
2022/06/29 06:27:58;;;;;;;5.87;5.37;;;21.40;94.80;;;;;;5126770;27;21109;-75
2022/06/29 06:30:24;;;;;;;7.70;7.20;;;21.20;95.00;;;;;;5113755;28;20448;-70
2022/06/29 06:32:50;;;;;;;7.40;7.00;;;21.00;94.80;;;;;;5114395;28;20896;-70
2022/06/29 06:35:16;;;;;;;6.53;5.90;;;21.00;95.40;;;;;;5114800;28;20175;-70
2022/06/29 06:37:43;;;;;;;6.77;6.17;;;20.90;95.70;;;;;;5114337;28;20561;-71
2022/06/29 06:42:54;;;;;;;5.80;5.40;;;20.90;95.00;;;;;;5121560;27;20569;-71
2022/06/29 06:45:20;;;;;;;5.27;4.90;;;20.90;95.50;;;;;;5116910;27;20871;-70
2022/06/29 06:47:45;;;;;;;4.73;4.43;;;20.80;95.60;;;;;;5128448;27;20168;-70
2022/06/29 06:50:11;;;;;;;6.70;6.30;;;20.80;96.30;;;;;;5116704;27;20429;-69
2022/06/29 06:52:37;;;;;;;6.17;5.63;;;20.90;96.70;;;;;;5117173;27;20231;-70
2022/06/29 06:55:03;;;;;;;5.97;5.47;;;20.90;96.30;;;;;;5116802;27;20172;-69
2022/06/29 06:57:29;;;;;;;7.37;6.80;;;20.80;96.00;;;;;;5121243;27;20179;-69
2022/06/29 06:59:54;;;;;;;7.70;7.00;;;20.80;96.40;;;;;;5116138;27;20460;-69
2022/06/29 07:02:21;;;;;;;7.60;7.00;;;20.80;96.70;;;;;;5118532;27;20193;-69
2022/06/29 07:04:46;;;;;;;6.70;6.10;;;20.80;97.40;;;;;;5134356;27;20171;-69
2022/06/29 07:07:15;;;;;;;5.97;5.53;;;20.80;97.30;;;;;;5131641;27;20424;-69
2022/06/29 07:09:41;;;;;;;6.97;6.20;;;20.80;97.40;;;;;;5111893;28;20190;-73
2022/06/29 07:12:07;;;;;;;5.70;5.30;;;20.80;96.70;;;;;;5118956;27;20426;-68
2022/06/29 07:14:33;;;;;;;5.67;5.20;;;20.80;96.80;;;;;;5117949;27;20626;-68
2022/06/29 07:16:59;;;;;;;5.63;5.23;;;20.80;97.10;;;;;;5118156;27;20412;-68
2022/06/29 07:19:24;;;;;;;7.20;5.60;;;20.80;96.70;;;;;;5114084;28;20203;-68
2022/06/29 07:21:50;;;;;;;5.67;5.17;;;20.80;97.10;;;;;;5113289;28;20658;-68
2022/06/29 07:24:19;;;;;;;6.30;5.60;;;20.80;97.10;;;;;;5114036;28;20175;-68
2022/06/29 07:26:45;;;;;;;7.17;6.50;;;20.80;97.30;;;;;;5113209;28;20409;-69
2022/06/29 07:29:10;;;;;;;9.40;6.40;;;20.90;97.60;;;;;;5110166;27;20629;-68
2022/06/29 07:31:36;;;;;;;5.13;4.73;;;20.90;97.80;;;;;;5113034;27;20191;-69
2022/06/29 07:34:02;;;;;;;6.10;5.50;;;20.90;98.10;;;;;;5112802;27;20848;-69
2022/06/29 07:36:29;;;;;;;7.80;7.20;;;20.90;98.30;;;;;;5113813;28;20160;-69
2022/06/29 07:38:55;;;;;;;5.87;5.47;;;21.00;98.30;;;;;;5122478;27;20199;-69
2022/06/29 07:41:20;;;;;;;8.17;6.87;;;21.10;98.30;;;;;;5133113;27;20413;-69
2022/06/29 07:43:49;;;;;;;6.23;5.73;;;21.10;98.10;;;;;;5121316;27;20421;-70
2022/06/29 07:46:15;;;;;;;6.07;5.67;;;21.10;98.10;;;;;;5113738;28;20174;-69
2022/06/29 07:48:41;;;;;;;6.47;5.97;;;21.20;98.70;;;;;;5113735;28;20481;-70
2022/06/29 07:51:07;;;;;;;5.40;4.93;;;21.30;98.70;;;;;;5111670;28;20508;-70
2022/06/29 07:53:33;;;;;;;6.07;5.53;;;21.30;98.20;;;;;;5116122;27;20503;-70
2022/06/29 07:55:59;;;;;;;7.30;5.10;;;21.30;97.60;;;;;;5126618;27;20199;-69
2022/06/29 07:58:24;;;;;;;5.33;4.83;;;21.30;97.40;;;;;;5122661;27;20523;-69
2022/06/29 08:00:50;;;;;;;6.40;5.20;;;21.30;97.40;;;;;;5112960;27;20625;-69
2022/06/29 08:03:16;;;;;;;6.70;6.07;;;21.40;97.30;;;;;;5134158;27;20170;-69
2022/06/29 08:05:42;;;;;;;6.53;5.10;;;21.40;96.90;;;;;;5133273;27;20594;-74
2022/06/29 08:08:08;;;;;;;4.73;4.27;;;21.40;96.80;;;;;;5128726;27;20181;-69
2022/06/29 08:10:34;;;;;;;5.93;5.57;;;21.50;95.80;;;;;;5134065;27;20444;-69
2022/06/29 08:13:00;;;;;;;6.80;6.20;;;21.50;96.20;;;;;;5129824;27;20497;-70
2022/06/29 08:15:26;;;;;;;5.50;5.17;;;21.50;96.80;;;;;;5120200;27;20433;-69
2022/06/29 08:17:54;;;;;;;5.50;5.00;;;21.60;97.30;;;;;;5110144;28;20433;-72
2022/06/29 08:20:20;;;;;;;6.50;5.90;;;21.60;97.00;;;;;;5112499;27;21042;-70
2022/06/29 08:22:46;;;;;;;6.10;5.17;;;21.60;96.30;;;;;;5132730;28;21052;-73
2022/06/29 08:25:17;;;;;;;6.73;4.23;;;21.70;96.20;;;;;;5132640;27;20416;-69
2022/06/29 08:27:49;;;;;;;5.30;4.80;;;21.70;96.40;;;;;;5129571;28;20622;-70
2022/06/29 08:30:14;;;;;;;5.00;4.60;;;21.70;96.10;;;;;;5112088;28;20757;-69
2022/06/29 08:32:41;;;;;;;5.50;5.10;;;21.70;96.10;;;;;;5113109;28;20508;-69
2022/06/29 08:35:08;;;;;;;5.13;4.83;;;21.80;97.10;;;;;;5111147;28;20167;-70
2022/06/29 08:37:33;;;;;;;5.90;5.50;;;21.80;98.00;;;;;;5112900;28;20458;-70
2022/06/29 08:39:59;;;;;;;6.80;5.67;;;21.80;98.20;;;;;;5111030;28;20854;-69
2022/06/29 08:42:25;;;;;;;5.60;5.20;;;21.80;97.60;;;;;;5112739;28;20225;-69
2022/06/29 08:44:51;;;;;;;6.23;5.60;;;21.80;97.40;;;;;;5112263;28;20168;-69
2022/06/29 08:47:17;;;;;;;6.17;5.40;;;21.80;96.90;;;;;;5112861;28;20199;-69
2022/06/29 08:49:46;;;;;;;5.77;5.37;;;21.80;97.00;;;;;;5112834;28;20445;-69
2022/06/29 08:52:12;;;;;;;5.10;4.73;;;21.80;97.10;;;;;;5112763;28;20413;-69
2022/06/29 08:54:43;;;;;;;5.40;4.97;;;21.70;96.90;;;;;;5111508;28;20454;-69
2022/06/29 08:57:09;;;;;;;6.67;6.03;;;21.70;97.00;;;;;;5111957;28;20172;-69
2022/06/29 08:59:35;;;;;;;7.30;6.83;;;21.80;96.80;;;;;;5041829;28;20477;-68
2022/06/29 09:02:02;;;;;;;8.90;8.20;;;21.80;96.70;;;;;;5091776;28;20407;-69
2022/06/29 09:04:31;;;;;;;7.20;6.60;;;21.80;97.40;;;;;;5092383;28;20407;-69
2022/06/29 09:06:57;;;;;;;5.73;5.23;;;21.80;98.30;;;;;;5091776;28;20418;-69
2022/06/29 09:09:26;;;;;;;7.13;6.63;;;21.80;99.10;;;;;;5091269;28;20419;-69
2022/06/29 09:11:53;;;;;;;7.20;6.70;;;21.80;99.40;;;;;;5091832;28;20411;-69
2022/06/29 09:14:22;;;;;;;5.03;4.63;;;21.90;99.70;;;;;;5092274;28;20457;-69
2022/06/29 09:16:55;;;;;;;9.23;8.63;;;21.90;99.90;;;;;;5108076;28;20768;-69
2022/06/29 09:19:23;;;;;;;6.00;5.60;;;21.90;99.90;;;;;;5112598;28;20484;-69
2022/06/29 09:21:54;;;;;;;7.07;6.37;;;21.90;99.90;;;;;;5111500;28;20449;-70
2022/06/29 09:24:23;;;;;;;7.53;5.90;;;21.90;99.90;;;;;;5112782;28;20410;-69
2022/06/29 09:26:51;;;;;;;7.10;6.43;;;21.90;99.90;;;;;;5112175;28;20445;-73
2022/06/29 09:29:28;;;;;;;6.90;6.30;;;21.90;99.90;;;;;;5112479;28;20528;-68
2022/06/29 09:32:06;;;;;;;6.47;5.30;;;21.90;99.90;;;;;;5113607;28;20496;-69
2022/06/29 09:34:33;;;;;;;8.27;7.30;;;21.90;99.90;;;;;;5115918;28;20414;-69
2022/06/29 09:37:01;;;;;;;6.73;6.13;;;21.90;99.90;;;;;;5114254;28;20776;-70
2022/06/29 09:39:36;;;;;;;8.13;7.47;;;21.90;99.20;;;;;;5114711;28;20506;-70
2022/06/29 09:42:04;;;;;;;11.87;6.97;;;21.90;99.30;;;;;;5115358;28;20420;-69
2022/06/29 09:44:30;;;;;;;7.60;6.90;;;21.90;98.70;;;;;;5113629;28;20426;-69
2022/06/29 09:46:57;;;;;;;10.53;7.63;;;22.00;98.30;;;;;;5115208;27;20494;-69
2022/06/29 09:49:27;;;;;;;8.20;6.40;;;22.00;97.60;;;;;;5115811;28;20855;-69
2022/06/29 09:51:57;;;;;;;7.57;6.50;;;22.00;97.70;;;;;;5114971;28;20417;-69
2022/06/29 09:54:37;;;;;;;10.60;5.40;;;22.10;98.30;;;;;;5115700;28;20842;-69
2022/06/29 09:57:04;;;;;;;6.03;5.30;;;22.20;98.80;;;;;;5115096;27;20822;-69
2022/06/29 10:02:37;;;;;;;5.57;5.07;;;22.30;98.90;;;;;;5115985;28;20398;-69
2022/06/29 10:05:04;;;;;;;7.90;5.67;;;22.40;98.20;;;;;;5114666;28;20953;-69
2022/06/29 10:07:31;;;;;;;6.30;5.57;;;22.50;98.60;;;;;;5114306;28;20409;-69
2022/06/29 10:09:59;;;;;;;6.43;5.80;;;22.60;98.70;;;;;;5114688;28;20828;-69
2022/06/29 10:16:11;;;;;;;6.90;5.90;;;22.70;98.60;;;;;;5114164;28;20452;-69
2022/06/29 10:18:54;;;;;;;6.83;6.10;;;22.80;98.40;;;;;;5114900;28;20421;-69
2022/06/29 10:21:29;;;;;;;6.50;5.90;;;22.90;98.00;;;;;;5115064;28;20457;-69
2022/06/29 10:23:59;;;;;;;6.10;5.60;;;23.00;98.20;;;;;;5114565;28;20412;-70
2022/06/29 10:26:30;;;;;;;8.23;7.70;;;23.10;98.50;;;;;;5115043;28;20827;-69
2022/06/29 10:29:17;;;;;;;7.87;7.17;;;23.20;98.70;;;;;;5061556;28;20429;-70
2022/06/29 10:31:52;;;;;;;11.63;6.00;;;23.20;98.60;;;;;;5099394;28;20508;-70
2022/06/29 10:37:12;;;;;;;7.40;6.60;;;23.40;98.00;;;;;;5114270;28;20433;-70
2022/06/29 10:39:48;;;;;;;7.57;6.90;;;23.40;97.10;;;;;;5114524;28;20838;-69
2022/06/29 10:45:14;;;;;;;8.80;8.00;;;23.40;97.30;;;;;;5113971;28;20809;-70
2022/06/29 10:48:05;;;;;;;7.80;7.20;;;23.40;97.90;;;;;;5114660;28;20421;-69
2022/06/29 10:50:31;;;;;;;8.60;7.90;;;23.40;97.20;;;;;;5105023;28;20429;-69
2022/06/29 10:53:09;;;;;;;8.20;7.47;;;23.40;96.90;;;;;;5113982;28;20488;-69
2022/06/29 10:55:42;;;;;;;10.30;7.17;;;23.30;96.40;;;;;;5114388;28;20950;-69
2022/06/29 10:58:08;;;;;;;10.00;9.13;;;23.30;96.20;;;;;;5113673;28;20398;-69
2022/06/29 11:00:40;;;;;;;7.73;6.10;;;23.40;96.50;;;;;;5114017;28;20948;-69
2022/06/29 11:03:12;;;;;;;7.60;6.50;;;23.30;96.20;;;;;;5111599;28;20774;-69
2022/06/29 11:13:57;;;;;;;6.97;6.20;;;23.50;97.30;;;;;;5114284;28;20464;-69
2022/06/29 11:16:34;;;;;;;7.07;6.40;;;23.50;97.30;;;;;;5113775;28;20923;-68
2022/06/29 11:19:00;;;;;;;6.40;5.87;;;23.60;97.50;;;;;;5111830;28;20467;-69
2022/06/29 11:21:30;;;;;;;6.60;6.10;;;23.70;97.10;;;;;;5113687;28;20457;-68
2022/06/29 11:24:04;;;;;;;6.93;6.33;;;23.70;96.50;;;;;;5112194;28;20429;-74
2022/06/29 11:26:31;;;;;;;6.47;5.87;;;23.80;97.20;;;;;;5114135;28;20401;-70
2022/06/29 11:28:57;;;;;;;6.73;6.30;;;23.90;97.00;;;;;;5111962;28;20428;-69
2022/06/29 11:31:24;;;;;;;7.03;6.03;;;23.90;97.10;;;;;;5114107;28;20793;-69
2022/06/29 11:33:52;;;;;;;6.63;6.00;;;23.90;96.40;;;;;;5110208;28;20180;-69
2022/06/29 11:36:30;;;;;;;7.53;7.03;;;24.00;96.50;;;;;;5113195;28;20448;-69
2022/06/29 11:39:15;;;;;;;6.00;5.60;;;24.00;95.30;;;;;;5113422;28;20492;-69
2022/06/29 11:44:35;;;;;;;9.93;6.80;;;24.10;96.60;;;;;;5112658;28;20433;-70
2022/06/29 11:47:01;;;;;;;7.67;7.07;;;24.10;96.70;;;;;;5112538;28;20772;-70
2022/06/29 11:49:40;;;;;;;6.90;6.30;;;24.20;96.50;;;;;;5113215;28;20195;-69
2022/06/29 11:52:13;;;;;;;7.13;6.43;;;24.20;95.30;;;;;;5112955;28;20569;-70
2022/06/29 11:54:52;;;;;;;8.37;7.00;;;24.20;96.00;;;;;;5113099;28;20402;-69
2022/06/29 11:57:20;;;;;;;6.70;6.10;;;24.20;95.90;;;;;;5112907;28;21022;-69
2022/06/29 11:59:46;;;;;;;7.00;6.50;;;24.20;95.50;;;;;;5113433;28;20461;-69
2022/06/29 12:02:14;;;;;;;8.10;6.90;;;24.20;96.20;;;;;;5112482;28;20919;-69
2022/06/29 12:04:41;;;;;;;6.80;6.20;;;24.10;95.20;;;;;;5111681;28;20523;-69
2022/06/29 12:07:19;;;;;;;7.20;6.80;;;24.10;95.20;;;;;;5112737;28;20409;-70
2022/06/29 12:09:51;;;;;;;6.77;6.30;;;24.10;95.60;;;;;;5113415;28;20741;-69
2022/06/29 12:12:19;;;;;;;6.70;6.20;;;24.10;95.60;;;;;;5112712;28;20394;-68
2022/06/29 12:14:45;;;;;;;7.30;6.90;;;24.20;97.20;;;;;;5113207;28;20448;-69
2022/06/29 12:17:13;;;;;;;8.30;7.47;;;24.20;98.20;;;;;;5112321;28;20445;-69
2022/06/29 12:19:39;;;;;;;8.00;7.40;;;24.20;97.20;;;;;;5111782;28;20219;-70
2022/06/29 12:22:05;;;;;;;7.37;6.93;;;24.20;97.30;;;;;;5112581;28;20976;-70
2022/06/29 12:24:31;;;;;;;8.93;7.83;;;24.20;96.50;;;;;;5113041;28;20787;-70
2022/06/29 12:26:56;;;;;;;8.60;8.10;;;24.20;96.40;;;;;;5113430;28;20421;-67
2022/06/29 12:29:22;;;;;;;9.00;8.30;;;24.30;96.60;;;;;;5112065;28;20203;-68
2022/06/29 12:31:48;;;;;;;8.40;7.80;;;24.30;96.90;;;;;;5111698;28;20171;-68
2022/06/29 12:34:15;;;;;;;9.60;8.80;;;24.30;96.70;;;;;;5111171;28;20179;-69
2022/06/29 12:36:41;;;;;;;8.80;8.10;;;24.40;96.20;;;;;;5112794;28;20638;-69
2022/06/29 12:39:08;;;;;;;10.33;7.50;;;24.40;94.30;;;;;;5112308;28;20453;-69
2022/06/29 12:41:36;;;;;;;14.80;8.57;;;24.40;94.40;;;;;;5112642;28;20841;-68
2022/06/29 12:44:05;;;;;;;8.30;7.70;;;24.40;94.80;;;;;;5110947;28;20496;-69
2022/06/29 12:46:34;;;;;;;7.90;7.40;;;24.50;93.80;;;;;;5112580;28;20411;-69
2022/06/29 12:49:01;;;;;;;8.13;7.53;;;24.50;94.10;;;;;;5112407;28;20425;-69
2022/06/29 12:51:27;;;;;;;8.40;7.80;;;24.50;92.90;;;;;;5094384;28;20833;-69
2022/06/29 12:53:53;;;;;;;8.47;7.63;;;24.60;93.80;;;;;;5112783;28;20445;-69
2022/06/29 12:56:19;;;;;;;8.30;7.70;;;24.70;93.90;;;;;;5112218;28;20412;-69
2022/06/29 12:58:45;;;;;;;7.93;7.43;;;24.70;92.90;;;;;;5112580;28;20176;-68
2022/06/29 13:01:11;;;;;;;8.63;8.03;;;24.70;92.60;;;;;;5110224;28;20216;-69
2022/06/29 13:03:37;;;;;;;8.00;7.50;;;24.80;92.90;;;;;;5112389;28;20180;-69
2022/06/29 13:06:02;;;;;;;7.90;7.30;;;24.80;92.00;;;;;;5111350;28;20421;-71
2022/06/29 13:08:28;;;;;;;8.40;7.80;;;24.80;92.10;;;;;;5116694;27;20530;-69
2022/06/29 13:10:59;;;;;;;9.17;7.80;;;24.90;91.30;;;;;;5116517;28;20865;-69
2022/06/29 13:13:26;;;;;;;9.20;8.60;;;24.90;91.10;;;;;;5116012;28;20290;-70
2022/06/29 13:15:51;;;;;;;9.07;8.27;;;24.90;91.30;;;;;;5115117;28;20421;-70
2022/06/29 13:18:18;;;;;;;7.93;7.43;;;24.80;91.40;;;;;;5115878;28;20438;-70
2022/06/29 13:20:44;;;;;;;7.97;7.27;;;24.80;88.70;;;;;;5097535;28;20218;-70
2022/06/29 13:23:10;;;;;;;7.80;7.20;;;24.90;85.90;;;;;;5115799;28;20412;-69